sensor_id;sensor_type;location;lat;lon;timestamp;temperature;humidity
18506;DHT22;9382;53.242;10.438;2024-03-02T00:03:11;9.00;99.90
18506;DHT22;9382;53.242;10.438;2024-03-02T00:06:32;9.00;99.90
18506;DHT22;9382;53.242;10.438;2024-03-02T00:09:20;9.00;99.90
18506;DHT22;9382;53.242;10.438;2024-03-02T00:15:37;8.90;99.90
18506;DHT22;9382;53.242;10.438;2024-03-02T00:18:53;8.90;99.90
18506;DHT22;9382;53.242;10.438;2024-03-02T00:25:20;8.80;99.90
18506;DHT22;9382;53.242;10.438;2024-03-02T00:31:10;8.80;99.90
18506;DHT22;9382;53.242;10.438;2024-03-02T00:51:03;8.70;99.90
18506;DHT22;9382;53.242;10.438;2024-03-02T00:53:57;8.60;99.90
18506;DHT22;9382;53.242;10.438;2024-03-02T01:01:19;8.60;99.90
18506;DHT22;9382;53.242;10.438;2024-03-02T03:15:09;8.00;99.90
18506;DHT22;9382;53.242;10.438;2024-03-02T03:18:18;7.90;99.90
18506;DHT22;9382;53.242;10.438;2024-03-02T03:24:19;7.90;99.90
18506;DHT22;9382;53.242;10.438;2024-03-02T03:30:36;7.90;99.90
18506;DHT22;9382;53.242;10.438;2024-03-02T03:33:43;8.00;99.90
18506;DHT22;9382;53.242;10.438;2024-03-02T03:40:22;8.00;99.90
18506;DHT22;9382;53.242;10.438;2024-03-02T04:19:49;8.00;99.90
18506;DHT22;9382;53.242;10.438;2024-03-02T04:48:37;8.00;99.90
18506;DHT22;9382;53.242;10.438;2024-03-02T05:49:32;7.90;99.90
18506;DHT22;9382;53.242;10.438;2024-03-02T05:52:17;7.90;99.90
18506;DHT22;9382;53.242;10.438;2024-03-02T06:31:03;7.90;99.90
18506;DHT22;9382;53.242;10.438;2024-03-02T06:33:41;7.90;99.90
18506;DHT22;9382;53.242;10.438;2024-03-02T06:36:12;7.90;99.90
18506;DHT22;9382;53.242;10.438;2024-03-02T06:42:34;7.90;99.90
18506;DHT22;9382;53.242;10.438;2024-03-02T06:45:27;7.90;99.90
18506;DHT22;9382;53.242;10.438;2024-03-02T06:48:03;8.00;99.90
18506;DHT22;9382;53.242;10.438;2024-03-02T06:50:58;8.00;99.90
18506;DHT22;9382;53.242;10.438;2024-03-02T06:53:58;8.00;99.90
18506;DHT22;9382;53.242;10.438;2024-03-02T06:56:35;8.00;99.90
18506;DHT22;9382;53.242;10.438;2024-03-02T06:59:07;8.00;99.90
18506;DHT22;9382;53.242;10.438;2024-03-02T07:01:42;8.00;99.90
18506;DHT22;9382;53.242;10.438;2024-03-02T07:08:28;8.10;99.90
18506;DHT22;9382;53.242;10.438;2024-03-02T07:10:56;8.00;99.90
18506;DHT22;9382;53.242;10.438;2024-03-02T07:13:23;8.10;99.90
18506;DHT22;9382;53.242;10.438;2024-03-02T07:19:25;8.20;99.90
18506;DHT22;9382;53.242;10.438;2024-03-02T07:21:59;8.20;99.90
18506;DHT22;9382;53.242;10.438;2024-03-02T07:27:57;8.30;99.90
18506;DHT22;9382;53.242;10.438;2024-03-02T07:30:40;8.30;99.90
18506;DHT22;9382;53.242;10.438;2024-03-02T07:33:23;8.40;99.90
18506;DHT22;9382;53.242;10.438;2024-03-02T07:36:19;8.40;99.90
18506;DHT22;9382;53.242;10.438;2024-03-02T07:38:50;8.50;99.90
18506;DHT22;9382;53.242;10.438;2024-03-02T07:41:39;8.60;99.90
18506;DHT22;9382;53.242;10.438;2024-03-02T08:01:09;9.30;99.90
18506;DHT22;9382;53.242;10.438;2024-03-02T08:07:52;9.50;99.90
18506;DHT22;9382;53.242;10.438;2024-03-02T08:13:15;9.80;99.90
18506;DHT22;9382;53.242;10.438;2024-03-02T08:16:35;9.90;99.90
18506;DHT22;9382;53.242;10.438;2024-03-02T08:27:31;10.50;99.90
18506;DHT22;9382;53.242;10.438;2024-03-02T08:30:00;10.60;99.90
18506;DHT22;9382;53.242;10.438;2024-03-02T08:33:01;10.70;99.90
18506;DHT22;9382;53.242;10.438;2024-03-02T08:35:35;10.70;99.90
18506;DHT22;9382;53.242;10.438;2024-03-02T08:38:25;10.80;99.90
18506;DHT22;9382;53.242;10.438;2024-03-02T08:41:05;10.90;99.90
18506;DHT22;9382;53.242;10.438;2024-03-02T08:44:07;11.00;99.90
18506;DHT22;9382;53.242;10.438;2024-03-02T08:46:37;11.20;99.90
18506;DHT22;9382;53.242;10.438;2024-03-02T08:49:27;11.40;99.90
18506;DHT22;9382;53.242;10.438;2024-03-02T08:51:58;11.60;99.90
18506;DHT22;9382;53.242;10.438;2024-03-02T08:54:40;11.70;99.90
18506;DHT22;9382;53.242;10.438;2024-03-02T08:57:10;11.90;99.90
18506;DHT22;9382;53.242;10.438;2024-03-02T08:59:56;12.10;99.90
18506;DHT22;9382;53.242;10.438;2024-03-02T09:02:59;12.40;99.90
18506;DHT22;9382;53.242;10.438;2024-03-02T09:06:07;12.70;99.90
18506;DHT22;9382;53.242;10.438;2024-03-02T09:10:19;12.80;99.90
18506;DHT22;9382;53.242;10.438;2024-03-02T09:12:05;12.80;99.90
18506;DHT22;9382;53.242;10.438;2024-03-02T09:15:17;13.00;99.90
18506;DHT22;9382;53.242;10.438;2024-03-02T09:17:44;13.00;99.90
18506;DHT22;9382;53.242;10.438;2024-03-02T09:20:37;13.10;99.90
18506;DHT22;9382;53.242;10.438;2024-03-02T09:23:23;13.30;99.90
18506;DHT22;9382;53.242;10.438;2024-03-02T09:26:37;13.30;99.90
18506;DHT22;9382;53.242;10.438;2024-03-02T09:31:59;13.40;99.90
18506;DHT22;9382;53.242;10.438;2024-03-02T09:34:34;13.60;99.90
18506;DHT22;9382;53.242;10.438;2024-03-02T09:37:01;13.70;99.90
18506;DHT22;9382;53.242;10.438;2024-03-02T09:39:47;13.70;99.90
18506;DHT22;9382;53.242;10.438;2024-03-02T09:42:30;13.90;99.90
18506;DHT22;9382;53.242;10.438;2024-03-02T09:45:03;14.00;99.90
18506;DHT22;9382;53.242;10.438;2024-03-02T09:47:41;14.20;99.90
18506;DHT22;9382;53.242;10.438;2024-03-02T09:50:16;14.30;99.90
18506;DHT22;9382;53.242;10.438;2024-03-02T09:53:21;14.10;99.90
18506;DHT22;9382;53.242;10.438;2024-03-02T09:56:06;14.10;99.90
18506;DHT22;9382;53.242;10.438;2024-03-02T09:58:45;14.10;99.90
18506;DHT22;9382;53.242;10.438;2024-03-02T10:15:04;14.00;99.90
18506;DHT22;9382;53.242;10.438;2024-03-02T10:21:15;14.00;99.90
18506;DHT22;9382;53.242;10.438;2024-03-02T10:27:52;13.90;99.90
18506;DHT22;9382;53.242;10.438;2024-03-02T10:35:26;13.90;99.90
18506;DHT22;9382;53.242;10.438;2024-03-02T10:41:17;13.90;99.90
18506;DHT22;9382;53.242;10.438;2024-03-02T10:44:08;14.10;99.90
18506;DHT22;9382;53.242;10.438;2024-03-02T10:50:56;14.30;99.90
18506;DHT22;9382;53.242;10.438;2024-03-02T10:53:28;14.50;99.90
18506;DHT22;9382;53.242;10.438;2024-03-02T10:58:02;14.70;99.90
18506;DHT22;9382;53.242;10.438;2024-03-02T11:01:22;15.10;99.90
18506;DHT22;9382;53.242;10.438;2024-03-02T11:03:21;15.60;99.90
18506;DHT22;9382;53.242;10.438;2024-03-02T11:06:14;15.80;99.90
18506;DHT22;9382;53.242;10.438;2024-03-02T11:08:52;15.80;99.90
18506;DHT22;9382;53.242;10.438;2024-03-02T11:11:42;15.80;99.90
18506;DHT22;9382;53.242;10.438;2024-03-02T11:14:34;15.80;99.90
18506;DHT22;9382;53.242;10.438;2024-03-02T11:17:13;15.70;99.90
18506;DHT22;9382;53.242;10.438;2024-03-02T11:25:55;15.80;99.90
18506;DHT22;9382;53.242;10.438;2024-03-02T11:29:00;16.00;99.90
18506;DHT22;9382;53.242;10.438;2024-03-02T11:32:12;16.30;99.90
18506;DHT22;9382;53.242;10.438;2024-03-02T11:35:01;16.70;99.90
18506;DHT22;9382;53.242;10.438;2024-03-02T11:37:42;17.00;99.90
18506;DHT22;9382;53.242;10.438;2024-03-02T11:40:13;17.10;99.90
18506;DHT22;9382;53.242;10.438;2024-03-02T11:49:14;17.40;99.90
18506;DHT22;9382;53.242;10.438;2024-03-02T11:52:56;17.30;99.90
18506;DHT22;9382;53.242;10.438;2024-03-02T12:01:40;17.80;99.90
18506;DHT22;9382;53.242;10.438;2024-03-02T12:04:57;17.70;99.90
18506;DHT22;9382;53.242;10.438;2024-03-02T12:08:28;17.60;99.90
18506;DHT22;9382;53.242;10.438;2024-03-02T12:11:01;17.40;99.90
18506;DHT22;9382;53.242;10.438;2024-03-02T12:16:25;17.00;99.90
18506;DHT22;9382;53.242;10.438;2024-03-02T12:19:33;16.70;99.90
18506;DHT22;9382;53.242;10.438;2024-03-02T12:22:15;16.30;99.90
18506;DHT22;9382;53.242;10.438;2024-03-02T12:24:50;16.00;99.90
18506;DHT22;9382;53.242;10.438;2024-03-02T12:27:17;15.70;99.90
18506;DHT22;9382;53.242;10.438;2024-03-02T12:29:46;15.60;99.90
18506;DHT22;9382;53.242;10.438;2024-03-02T12:32:35;15.50;99.90
18506;DHT22;9382;53.242;10.438;2024-03-02T12:35:08;15.40;99.90
18506;DHT22;9382;53.242;10.438;2024-03-02T12:40:54;15.40;99.90
18506;DHT22;9382;53.242;10.438;2024-03-02T12:41:35;15.20;99.90
18506;DHT22;9382;53.242;10.438;2024-03-02T12:47:45;15.20;99.90
18506;DHT22;9382;53.242;10.438;2024-03-02T12:50:25;15.10;99.90
18506;DHT22;9382;53.242;10.438;2024-03-02T12:52:55;15.10;99.90
18506;DHT22;9382;53.242;10.438;2024-03-02T12:55:34;15.00;99.90
18506;DHT22;9382;53.242;10.438;2024-03-02T12:58:22;15.10;99.90
18506;DHT22;9382;53.242;10.438;2024-03-02T13:01:08;15.00;99.90
18506;DHT22;9382;53.242;10.438;2024-03-02T13:03:52;15.00;99.90
18506;DHT22;9382;53.242;10.438;2024-03-02T13:06:45;15.00;99.90
18506;DHT22;9382;53.242;10.438;2024-03-02T13:09:26;14.90;99.90
18506;DHT22;9382;53.242;10.438;2024-03-02T13:11:55;14.90;99.90
18506;DHT22;9382;53.242;10.438;2024-03-02T13:14:35;14.80;99.90
18506;DHT22;9382;53.242;10.438;2024-03-02T13:17:30;14.80;99.90
18506;DHT22;9382;53.242;10.438;2024-03-02T13:20:15;14.80;99.90
18506;DHT22;9382;53.242;10.438;2024-03-02T13:23:40;14.80;99.90
18506;DHT22;9382;53.242;10.438;2024-03-02T13:27:06;14.70;99.90
18506;DHT22;9382;53.242;10.438;2024-03-02T13:29:59;14.60;99.90
18506;DHT22;9382;53.242;10.438;2024-03-02T13:32:52;14.60;99.90
18506;DHT22;9382;53.242;10.438;2024-03-02T13:35:33;14.50;99.90
18506;DHT22;9382;53.242;10.438;2024-03-02T13:38:07;14.50;99.90
18506;DHT22;9382;53.242;10.438;2024-03-02T13:41:11;14.40;99.90
18506;DHT22;9382;53.242;10.438;2024-03-02T13:45:02;14.40;99.90
18506;DHT22;9382;53.242;10.438;2024-03-02T13:46:50;14.40;99.90
18506;DHT22;9382;53.242;10.438;2024-03-02T13:49:39;14.40;99.90
18506;DHT22;9382;53.242;10.438;2024-03-02T13:52:14;14.40;99.90
18506;DHT22;9382;53.242;10.438;2024-03-02T13:55:12;14.40;99.90
18506;DHT22;9382;53.242;10.438;2024-03-02T13:57:56;14.30;99.90
18506;DHT22;9382;53.242;10.438;2024-03-02T14:00:37;14.20;99.90
18506;DHT22;9382;53.242;10.438;2024-03-02T14:03:24;14.20;99.90
18506;DHT22;9382;53.242;10.438;2024-03-02T14:06:42;14.20;99.90
18506;DHT22;9382;53.242;10.438;2024-03-02T14:09:38;14.20;99.90
18506;DHT22;9382;53.242;10.438;2024-03-02T14:12:40;14.20;99.90
18506;DHT22;9382;53.242;10.438;2024-03-02T14:15:40;14.10;99.90
18506;DHT22;9382;53.242;10.438;2024-03-02T14:18:54;14.10;99.90
18506;DHT22;9382;53.242;10.438;2024-03-02T14:21:42;14.10;99.90
18506;DHT22;9382;53.242;10.438;2024-03-02T14:25:26;14.10;99.90
18506;DHT22;9382;53.242;10.438;2024-03-02T14:30:24;14.00;99.90
18506;DHT22;9382;53.242;10.438;2024-03-02T14:35:39;14.00;99.90
18506;DHT22;9382;53.242;10.438;2024-03-02T14:41:55;14.10;99.90
18506;DHT22;9382;53.242;10.438;2024-03-02T14:44:42;14.10;99.90
18506;DHT22;9382;53.242;10.438;2024-03-02T14:47:23;14.20;99.90
18506;DHT22;9382;53.242;10.438;2024-03-02T14:56:45;14.50;99.90
18506;DHT22;9382;53.242;10.438;2024-03-02T14:59:58;14.60;99.90
18506;DHT22;9382;53.242;10.438;2024-03-02T15:02:56;14.80;99.90
18506;DHT22;9382;53.242;10.438;2024-03-02T15:05:37;15.30;99.90
18506;DHT22;9382;53.242;10.438;2024-03-02T15:08:44;15.80;99.90
18506;DHT22;9382;53.242;10.438;2024-03-02T15:12:01;16.50;99.90
18506;DHT22;9382;53.242;10.438;2024-03-02T15:15:10;17.40;99.90
18506;DHT22;9382;53.242;10.438;2024-03-02T15:18:41;18.00;99.90
18506;DHT22;9382;53.242;10.438;2024-03-02T15:24:31;19.30;99.90
18506;DHT22;9382;53.242;10.438;2024-03-02T15:28:41;20.40;99.90
18506;DHT22;9382;53.242;10.438;2024-03-02T15:31:18;20.70;99.90
18506;DHT22;9382;53.242;10.438;2024-03-02T15:34:35;20.00;99.90
18506;DHT22;9382;53.242;10.438;2024-03-02T15:40:52;18.70;99.90
18506;DHT22;9382;53.242;10.438;2024-03-02T15:43:47;18.50;99.90
18506;DHT22;9382;53.242;10.438;2024-03-02T15:49:37;18.00;99.90
18506;DHT22;9382;53.242;10.438;2024-03-02T15:52:09;17.30;99.90
18506;DHT22;9382;53.242;10.438;2024-03-02T15:55:17;16.80;99.90
18506;DHT22;9382;53.242;10.438;2024-03-02T15:57:58;16.40;99.90
18506;DHT22;9382;53.242;10.438;2024-03-02T16:00:36;15.80;99.90
18506;DHT22;9382;53.242;10.438;2024-03-02T16:03:30;15.50;99.90
18506;DHT22;9382;53.242;10.438;2024-03-02T16:09:14;14.80;99.90
18506;DHT22;9382;53.242;10.438;2024-03-02T16:15:07;14.40;99.90
18506;DHT22;9382;53.242;10.438;2024-03-02T16:17:39;14.20;99.90
18506;DHT22;9382;53.242;10.438;2024-03-02T16:23:57;14.00;99.90
18506;DHT22;9382;53.242;10.438;2024-03-02T16:26:59;13.80;99.90
18506;DHT22;9382;53.242;10.438;2024-03-02T16:33:07;13.60;99.90
18506;DHT22;9382;53.242;10.438;2024-03-02T16:49:38;12.60;99.90
18506;DHT22;9382;53.242;10.438;2024-03-02T16:52:29;12.50;99.90
18506;DHT22;9382;53.242;10.438;2024-03-02T16:55:37;12.30;99.90
18506;DHT22;9382;53.242;10.438;2024-03-02T16:58:04;12.20;99.90
18506;DHT22;9382;53.242;10.438;2024-03-02T17:00:41;12.00;99.90
18506;DHT22;9382;53.242;10.438;2024-03-02T17:03:22;11.90;99.90
18506;DHT22;9382;53.242;10.438;2024-03-02T17:06:12;11.80;99.90
18506;DHT22;9382;53.242;10.438;2024-03-02T17:08:50;11.60;99.90
18506;DHT22;9382;53.242;10.438;2024-03-02T17:11:38;11.60;99.90
18506;DHT22;9382;53.242;10.438;2024-03-02T17:14:29;11.50;99.90
18506;DHT22;9382;53.242;10.438;2024-03-02T17:17:01;11.40;99.90
18506;DHT22;9382;53.242;10.438;2024-03-02T17:19:59;11.30;99.90
18506;DHT22;9382;53.242;10.438;2024-03-02T17:26:24;11.10;99.90
18506;DHT22;9382;53.242;10.438;2024-03-02T17:29:22;10.90;99.90
18506;DHT22;9382;53.242;10.438;2024-03-02T17:32:08;10.90;99.90
18506;DHT22;9382;53.242;10.438;2024-03-02T17:34:52;10.80;99.90
18506;DHT22;9382;53.242;10.438;2024-03-02T17:37:47;10.70;99.90
18506;DHT22;9382;53.242;10.438;2024-03-02T17:40:38;10.60;99.90
18506;DHT22;9382;53.242;10.438;2024-03-02T17:43:27;10.60;99.90
18506;DHT22;9382;53.242;10.438;2024-03-02T17:45:56;10.60;99.90
18506;DHT22;9382;53.242;10.438;2024-03-02T17:48:41;10.50;99.90
18506;DHT22;9382;53.242;10.438;2024-03-02T17:51:33;10.50;99.90
18506;DHT22;9382;53.242;10.438;2024-03-02T17:54:15;10.40;99.90
18506;DHT22;9382;53.242;10.438;2024-03-02T17:56:52;10.30;99.90
18506;DHT22;9382;53.242;10.438;2024-03-02T17:59:29;10.30;99.90
18506;DHT22;9382;53.242;10.438;2024-03-02T18:02:08;10.30;99.90
18506;DHT22;9382;53.242;10.438;2024-03-02T18:14:38;10.10;99.90
18506;DHT22;9382;53.242;10.438;2024-03-02T18:17:15;10.00;99.90
18506;DHT22;9382;53.242;10.438;2024-03-02T18:19:54;10.00;99.90
18506;DHT22;9382;53.242;10.438;2024-03-02T18:22:42;9.90;99.90
18506;DHT22;9382;53.242;10.438;2024-03-02T18:25:19;10.00;99.90
18506;DHT22;9382;53.242;10.438;2024-03-02T18:27:51;9.90;99.90
18506;DHT22;9382;53.242;10.438;2024-03-02T18:31:50;9.90;99.90
18506;DHT22;9382;53.242;10.438;2024-03-02T18:34:25;9.80;99.90
18506;DHT22;9382;53.242;10.438;2024-03-02T18:37:52;9.80;99.90
18506;DHT22;9382;53.242;10.438;2024-03-02T18:40:22;9.80;99.90
18506;DHT22;9382;53.242;10.438;2024-03-02T19:57:43;8.50;99.90
